createdAt,value
2023-02-07T00:02:50.872Z,95254.30
2023-02-07T00:07:57.767Z,95258.70
2023-02-07T00:13:06.341Z,95241.12
2023-02-07T00:18:13.731Z,95246.98
2023-02-07T00:23:20.565Z,95239.89
2023-02-07T00:28:28.241Z,95232.75
2023-02-07T00:33:36.620Z,95239.34
2023-02-07T00:38:45.299Z,95254.92
2023-02-07T00:43:52.411Z,95245.93
2023-02-07T00:48:59.374Z,95252.07
2023-02-07T00:54:06.766Z,95251.45
2023-02-07T00:59:13.658Z,95243.72
2023-02-07T01:04:20.668Z,95247.55
2023-02-07T01:09:27.522Z,95249.16
2023-02-07T01:14:34.726Z,95254.70
2023-02-07T01:19:41.909Z,95247.70
2023-02-07T01:24:48.475Z,95247.78
2023-02-07T01:29:55.041Z,95250.19
2023-02-07T01:35:01.572Z,95268.65
2023-02-07T01:40:09.787Z,95262.70
2023-02-07T01:45:32.565Z,95093.99
2023-02-07T01:50:42.296Z,95272.64
2023-02-07T01:55:53.418Z,95262.31
2023-02-07T02:01:01.926Z,95247.56
2023-02-07T02:06:09.296Z,95251.91
2023-02-07T02:11:44.524Z,95157.39
2023-02-07T02:17:18.318Z,95261.89
2023-02-07T02:22:51.650Z,95273.66
2023-02-07T02:28:41.317Z,95279.61
2023-02-07T02:34:10.490Z,95285.42
2023-02-07T02:39:23.870Z,95279.92
2023-02-07T02:44:59.025Z,95283.27
2023-02-07T02:50:13.650Z,95279.70
2023-02-07T02:55:30.640Z,95295.95
2023-02-07T03:00:55.524Z,95291.34
2023-02-07T03:06:24.578Z,95304.39
2023-02-07T03:11:36.005Z,95301.63
2023-02-07T03:16:52.904Z,95286.97
2023-02-07T03:22:07.937Z,95290.64
2023-02-07T03:27:18.116Z,95292.77
2023-02-07T03:32:26.261Z,95292.63
2023-02-07T03:37:36.799Z,95292.55
2023-02-07T03:42:52.456Z,95277.77
2023-02-07T03:47:58.884Z,95264.59
2023-02-07T03:53:05.306Z,95254.78
2023-02-07T03:58:12.040Z,95249.12
2023-02-07T04:03:18.463Z,95234.05
2023-02-07T04:08:25.348Z,95223.88
2023-02-07T04:13:32.735Z,95224.23
2023-02-07T04:18:39.816Z,95213.92
2023-02-07T04:23:47.026Z,95205.58
2023-02-07T04:28:53.717Z,95209.06
2023-02-07T04:34:00.440Z,95204.58
2023-02-07T04:39:07.167Z,95196.30
2023-02-07T04:44:13.834Z,95206.14
2023-02-07T04:49:20.685Z,95214.80
2023-02-07T04:54:27.369Z,95208.86
2023-02-07T04:59:34.206Z,95227.82
2023-02-07T05:04:40.883Z,95218.41
2023-02-07T05:09:47.602Z,95226.70
2023-02-07T05:14:54.723Z,95244.51
2023-02-07T05:20:01.625Z,95248.30
2023-02-07T05:25:09.556Z,95249.16
2023-02-07T05:30:16.717Z,95070.52
2023-02-07T05:35:24.980Z,95244.45
2023-02-07T05:40:31.792Z,95258.63
2023-02-07T05:45:39.016Z,95255.25
2023-02-07T05:50:45.960Z,95251.28
2023-02-07T05:55:54.195Z,95254.55
2023-02-07T06:01:00.911Z,95268.97
2023-02-07T06:06:08.158Z,95266.16
2023-02-07T06:11:14.858Z,95250.45
2023-02-07T06:16:21.636Z,95245.28
2023-02-07T06:21:45.095Z,95265.76
2023-02-07T06:26:37.504Z,95265.66
2023-02-07T06:31:44.286Z,95257.86
2023-02-07T06:36:51.073Z,95261.78
2023-02-07T06:41:58.377Z,95258.72
2023-02-07T06:47:05.097Z,95264.34
2023-02-07T06:52:12.615Z,95268.52
2023-02-07T06:57:22.243Z,95265.06
2023-02-07T07:02:28.968Z,95257.51
2023-02-07T07:07:35.807Z,95247.64
2023-02-07T07:12:43.354Z,95249.88
2023-02-07T07:17:50.065Z,95245.31
2023-02-07T07:22:56.782Z,95254.16
2023-02-07T07:28:03.535Z,95265.20
2023-02-07T07:33:11.106Z,95262.15
2023-02-07T07:38:17.820Z,95266.66
2023-02-07T07:43:24.499Z,95249.41
2023-02-07T07:48:31.720Z,95259.29
2023-02-07T07:53:38.411Z,95250.95
2023-02-07T07:58:45.266Z,95261.23
2023-02-07T08:03:52.236Z,95256.51
2023-02-07T08:08:58.964Z,95254.36
2023-02-07T08:14:05.669Z,95253.83
2023-02-07T08:19:12.534Z,95247.25
2023-02-07T08:24:19.293Z,95240.66
2023-02-07T08:29:26.116Z,95236.46
2023-02-07T08:34:34.508Z,95236.31
2023-02-07T08:39:41.315Z,95237.39
2023-02-07T08:44:49.472Z,95230.70
2023-02-07T08:49:56.168Z,95228.72
2023-02-07T08:55:03.393Z,95231.89
2023-02-07T09:00:11.786Z,95229.17
2023-02-07T09:05:18.499Z,95228.90
2023-02-07T09:10:25.854Z,95235.78
2023-02-07T09:15:32.918Z,95239.91
2023-02-07T09:20:40.682Z,95244.95
2023-02-07T09:25:50.051Z,95252.91
2023-02-07T09:30:56.904Z,95255.23
2023-02-07T09:36:03.670Z,95249.82
2023-02-07T09:41:14.886Z,95239.61
2023-02-07T09:46:40.466Z,95247.03
2023-02-07T09:51:47.789Z,95249.96
2023-02-07T09:56:58.313Z,95239.66
2023-02-07T10:02:09.753Z,95253.94
2023-02-07T10:07:16.483Z,95259.24
2023-02-07T10:12:36.103Z,95257.52
2023-02-07T10:17:56.272Z,95253.43
2023-02-07T10:23:44.809Z,95248.90
2023-02-07T10:29:04.896Z,95239.92
2023-02-07T10:34:26.483Z,95237.79
2023-02-07T10:39:45.655Z,95226.09
2023-02-07T10:44:52.596Z,95224.84
2023-02-07T10:49:59.982Z,95214.44
2023-02-07T10:55:10.623Z,95211.95
2023-02-07T11:00:34.680Z,95196.52
2023-02-07T11:05:55.628Z,95198.25
2023-02-07T11:11:22.059Z,95208.55
2023-02-07T11:16:28.775Z,95194.40
2023-02-07T11:21:44.610Z,95183.31
2023-02-07T11:27:07.726Z,95188.90
2023-02-07T11:32:16.648Z,95186.05
2023-02-07T11:37:38.734Z,95184.84
2023-02-07T11:42:45.583Z,95183.98
2023-02-07T11:47:55.494Z,95171.03
2023-02-07T11:53:03.282Z,95165.55
2023-02-07T11:58:23.205Z,95154.63
2023-02-07T12:03:36.860Z,95151.30
2023-02-07T12:08:43.261Z,95146.00
2023-02-07T12:14:05.789Z,95147.55
2023-02-07T12:19:22.857Z,95145.09
2023-02-07T12:24:42.531Z,95135.83
2023-02-07T12:30:02.457Z,95130.51
2023-02-07T12:35:41.102Z,95131.95
2023-02-07T12:40:51.183Z,95124.56
2023-02-07T12:46:05.214Z,95122.63
2023-02-07T12:51:28.002Z,95112.88
2023-02-07T12:57:04.432Z,95124.58
2023-02-07T13:02:18.343Z,95109.21
2023-02-07T13:08:00.527Z,95104.09
2023-02-07T13:13:31.004Z,95103.45
2023-02-07T13:19:13.452Z,95097.38
2023-02-07T13:24:24.177Z,95099.77
2023-02-07T13:29:33.908Z,95094.05
2023-02-07T13:35:08.023Z,95085.23
2023-02-07T13:40:46.047Z,95095.70
2023-02-07T13:46:12.193Z,95103.48
2023-02-07T13:51:54.903Z,95104.58
2023-02-07T13:57:20.534Z,95099.93
2023-02-07T14:02:27.366Z,95101.45
2023-02-07T14:07:36.388Z,95109.52
2023-02-07T14:12:43.527Z,95108.98
2023-02-07T14:18:06.112Z,95099.28
2023-02-07T14:23:19.549Z,95109.72
2023-02-07T14:28:37.032Z,94938.83
2023-02-07T14:33:43.848Z,95110.38
2023-02-07T14:39:10.225Z,95103.16
2023-02-07T14:44:38.340Z,95104.09
2023-02-07T14:49:49.255Z,95091.09
2023-02-07T14:55:09.389Z,95091.25
2023-02-07T15:00:20.523Z,95091.73
2023-02-07T15:05:40.654Z,95096.16
2023-02-07T15:11:09.490Z,95090.95
2023-02-07T15:16:26.624Z,95101.49
2023-02-07T15:21:50.437Z,95111.84
2023-02-07T15:27:01.737Z,95100.84
2023-02-07T15:32:24.758Z,95112.12
2023-02-07T15:37:31.762Z,95118.21
2023-02-07T15:42:38.691Z,95122.06
2023-02-07T15:47:45.920Z,95123.16
2023-02-07T15:52:56.800Z,95124.47
2023-02-07T15:58:06.867Z,95123.39
2023-02-07T16:03:25.918Z,95133.67
2023-02-07T16:08:40.035Z,95141.03
2023-02-07T16:14:06.318Z,95144.61
2023-02-07T16:25:32.739Z,95155.16
2023-02-07T16:30:41.957Z,95156.94
2023-02-07T16:35:48.894Z,95170.38
2023-02-07T16:40:55.910Z,95183.20
2023-02-07T16:46:04.259Z,95190.60
2023-02-07T16:51:11.041Z,95204.00
2023-02-07T16:56:29.779Z,95211.61
2023-02-07T17:01:37.995Z,95216.30
2023-02-07T17:06:46.508Z,95234.28
2023-02-07T17:11:55.093Z,95232.20
2023-02-07T17:17:01.871Z,95226.86
2023-02-07T17:22:08.711Z,95239.36
2023-02-07T17:27:16.544Z,95240.47
2023-02-07T17:32:24.020Z,95241.91
2023-02-07T17:37:30.832Z,95249.52
2023-02-07T17:42:37.730Z,95256.52
2023-02-07T17:47:44.468Z,95257.11
2023-02-07T17:52:51.234Z,95259.45
2023-02-07T17:57:58.061Z,95251.66
2023-02-07T18:03:06.742Z,95264.88
2023-02-07T18:08:17.668Z,95255.45
2023-02-07T18:13:24.544Z,95260.20
2023-02-07T18:18:31.422Z,95256.46
2023-02-07T18:23:38.337Z,95259.56
2023-02-07T18:28:46.781Z,95064.07
2023-02-07T18:33:55.064Z,95255.17
2023-02-07T18:39:01.779Z,95247.10
2023-02-07T18:44:08.877Z,95246.36
2023-02-07T18:49:16.324Z,95245.42
2023-02-07T18:54:24.529Z,95241.77
2023-02-07T18:59:32.333Z,95247.87
2023-02-07T19:04:39.135Z,95248.41
2023-02-07T19:09:47.046Z,95247.83
2023-02-07T19:14:53.633Z,95252.45
2023-02-07T19:20:00.339Z,95245.77
2023-02-07T19:25:08.383Z,95242.23
2023-02-07T19:30:16.516Z,95239.98
2023-02-07T19:35:23.340Z,95242.01
2023-02-07T19:40:30.165Z,95258.38
2023-02-07T19:45:38.310Z,95264.92
2023-02-07T19:50:48.886Z,95265.31
2023-02-07T19:55:57.135Z,95269.69
2023-02-07T20:01:04.303Z,95264.66
2023-02-07T20:06:14.725Z,95268.19
2023-02-07T20:11:24.746Z,95268.25
2023-02-07T20:16:38.953Z,95272.56
2023-02-07T20:21:47.930Z,95275.38
2023-02-07T20:26:56.075Z,95282.58
2023-02-07T20:32:03.056Z,95283.45
2023-02-07T20:37:11.854Z,95290.67
2023-02-07T20:42:18.803Z,95280.97
2023-02-07T20:47:25.620Z,95285.50
2023-02-07T20:52:32.993Z,95281.76
2023-02-07T20:57:39.956Z,95280.42
2023-02-07T21:02:46.733Z,95275.25
2023-02-07T21:07:53.569Z,95274.70
2023-02-07T21:13:02.103Z,95274.73
2023-02-07T21:18:09.290Z,95278.86
2023-02-07T21:23:17.418Z,95277.16
2023-02-07T21:28:24.601Z,95278.18
2023-02-07T21:33:31.761Z,95276.99
2023-02-07T21:38:40.880Z,95273.00
2023-02-07T21:43:49.009Z,95270.94
2023-02-07T21:49:03.660Z,95273.00
2023-02-07T21:54:10.412Z,95283.45
2023-02-07T21:59:20.304Z,95275.55
2023-02-07T22:04:30.394Z,95285.56
2023-02-07T22:09:37.302Z,95293.77
2023-02-07T22:14:44.136Z,95292.06
2023-02-07T22:19:52.736Z,95294.36
2023-02-07T22:24:59.851Z,95295.48
2023-02-07T22:30:07.261Z,95298.56
2023-02-07T22:35:15.194Z,95302.52
2023-02-07T22:40:22.143Z,95306.60
2023-02-07T22:45:29.708Z,95310.05
2023-02-07T22:50:36.812Z,95317.42
2023-02-07T22:55:44.214Z,95315.42
2023-02-07T23:00:51.336Z,95304.97
2023-02-07T23:06:28.330Z,95300.45
2023-02-07T23:11:36.172Z,95304.06
2023-02-07T23:16:44.783Z,95308.38
2023-02-07T23:21:52.338Z,95306.44
2023-02-07T23:26:59.203Z,95305.57
2023-02-07T23:32:07.088Z,95308.11
2023-02-07T23:37:14.217Z,95308.84
2023-02-07T23:42:22.083Z,95308.69
2023-02-07T23:47:29.252Z,95306.36
2023-02-07T23:52:36.296Z,95305.56
2023-02-07T23:57:43.521Z,95304.75
